createdAt,value
2023-02-23T00:01:54.565Z,7.87
2023-02-23T00:04:21.727Z,7.86
2023-02-23T00:06:48.329Z,7.81
2023-02-23T00:09:24.505Z,7.78
2023-02-23T00:11:53.227Z,7.76
2023-02-23T00:14:20.354Z,7.80
2023-02-23T00:16:47.050Z,7.80
2023-02-23T00:19:17.594Z,7.74
2023-02-23T00:21:45.455Z,7.73
2023-02-23T00:24:15.837Z,7.74
2023-02-23T00:26:42.769Z,7.73
2023-02-23T00:29:13.885Z,7.74
2023-02-23T00:31:40.588Z,7.73
2023-02-23T00:34:07.665Z,7.68
2023-02-23T00:36:35.632Z,7.67
2023-02-23T00:39:18.115Z,7.69
2023-02-23T00:41:48.626Z,7.72
2023-02-23T00:44:15.954Z,7.71
2023-02-23T00:46:44.241Z,7.68
2023-02-23T00:49:12.983Z,7.70
2023-02-23T00:51:41.463Z,7.73
2023-02-23T00:54:10.780Z,7.74
2023-02-23T00:56:38.626Z,7.78
2023-02-23T00:59:05.302Z,7.81
2023-02-23T01:01:31.900Z,7.82
2023-02-23T01:03:58.495Z,7.78
2023-02-23T01:06:25.128Z,7.73
2023-02-23T01:08:56.762Z,7.73
2023-02-23T01:11:28.303Z,7.75
2023-02-23T01:13:57.611Z,7.76
2023-02-23T01:16:30.750Z,7.75
2023-02-23T01:18:59.574Z,7.75
2023-02-23T01:21:32.250Z,7.70
2023-02-23T01:23:59.074Z,7.68
2023-02-23T01:26:28.997Z,7.59
2023-02-23T01:28:58.882Z,7.56
2023-02-23T01:31:26.285Z,7.52
2023-02-23T01:34:03.634Z,7.49
2023-02-23T01:36:35.169Z,7.51
2023-02-23T01:39:02.565Z,7.51
2023-02-23T01:41:33.039Z,7.48
2023-02-23T01:44:01.330Z,7.46
2023-02-23T01:46:32.226Z,7.41
2023-02-23T01:48:59.793Z,7.36
2023-02-23T01:51:30.729Z,7.37
2023-02-23T01:54:05.501Z,7.38
2023-02-23T01:56:36.674Z,7.40
2023-02-23T01:59:07.809Z,7.41
2023-02-23T02:01:35.048Z,7.45
2023-02-23T02:04:06.814Z,7.44
2023-02-23T02:06:36.416Z,7.43
2023-02-23T02:09:08.225Z,7.42
2023-02-23T02:11:39.318Z,7.42
2023-02-23T02:14:23.994Z,7.43
2023-02-23T02:17:02.502Z,7.47
2023-02-23T02:19:40.845Z,7.47
2023-02-23T02:22:19.638Z,7.49
2023-02-23T02:24:58.665Z,7.51
2023-02-23T02:28:08.692Z,7.54
2023-02-23T02:30:56.775Z,7.56
2023-02-23T02:33:32.368Z,7.52
2023-02-23T02:36:13.978Z,7.52
2023-02-23T02:39:10.508Z,7.50
2023-02-23T02:41:53.338Z,7.51
2023-02-23T02:44:22.823Z,7.52
2023-02-23T02:46:58.206Z,7.52
2023-02-23T02:49:29.983Z,7.53
2023-02-23T02:52:17.738Z,7.49
2023-02-23T02:54:53.392Z,7.51
2023-02-23T02:57:25.134Z,7.53
2023-02-23T03:00:10.613Z,7.57
2023-02-23T03:02:58.934Z,7.57
2023-02-23T03:05:53.294Z,7.58
2023-02-23T03:08:47.185Z,7.58
2023-02-23T03:11:34.009Z,7.65
2023-02-23T03:14:48.413Z,7.68
2023-02-23T03:18:15.859Z,7.72
2023-02-23T03:21:12.710Z,7.75
2023-02-23T03:24:06.469Z,7.70
2023-02-23T03:26:54.694Z,7.68
2023-02-23T03:29:58.848Z,7.67
2023-02-23T03:32:54.290Z,7.65
2023-02-23T03:36:01.519Z,7.64
2023-02-23T03:38:49.709Z,7.71
2023-02-23T03:41:38.842Z,7.71
2023-02-23T03:44:33.818Z,7.69
2023-02-23T03:47:20.475Z,7.70
2023-02-23T03:50:08.801Z,7.67
2023-02-23T03:53:04.480Z,7.65
2023-02-23T03:55:56.697Z,7.65
2023-02-23T03:58:49.903Z,7.69
2023-02-23T04:01:38.900Z,7.69
2023-02-23T04:04:27.711Z,7.72
2023-02-23T04:07:17.163Z,7.77
2023-02-23T04:10:02.968Z,7.78
2023-02-23T04:13:14.941Z,7.77
2023-02-23T04:15:49.195Z,7.79
2023-02-23T04:18:21.384Z,7.80
2023-02-23T04:20:48.078Z,7.81
2023-02-23T04:23:14.745Z,7.78
2023-02-23T04:25:41.401Z,7.80
2023-02-23T04:28:07.999Z,7.81
2023-02-23T04:30:34.743Z,7.78
2023-02-23T04:33:01.337Z,7.78
2023-02-23T04:35:29.934Z,7.78
2023-02-23T04:37:56.886Z,7.74
2023-02-23T04:40:24.386Z,7.74
2023-02-23T04:42:51.272Z,7.68
2023-02-23T04:45:18.224Z,7.64
2023-02-23T04:47:44.953Z,7.68
2023-02-23T04:50:12.558Z,7.70
2023-02-23T04:52:39.733Z,7.70
2023-02-23T04:55:08.444Z,7.71
2023-02-23T04:57:35.614Z,7.70
2023-02-23T05:00:04.411Z,7.70
2023-02-23T05:02:32.210Z,7.73
2023-02-23T05:04:58.875Z,7.75
2023-02-23T05:07:25.552Z,7.74
2023-02-23T05:09:52.158Z,7.75
2023-02-23T05:12:18.895Z,7.74
2023-02-23T05:14:45.453Z,7.76
2023-02-23T05:17:12.229Z,7.77
2023-02-23T05:19:38.799Z,7.78
2023-02-23T05:22:05.473Z,7.78
2023-02-23T05:24:32.043Z,7.79
2023-02-23T05:26:59.003Z,7.81
2023-02-23T05:29:25.590Z,7.81
2023-02-23T05:31:52.314Z,7.81
2023-02-23T05:34:18.964Z,7.79
2023-02-23T05:36:45.542Z,7.76
2023-02-23T05:39:12.163Z,7.76
2023-02-23T05:41:38.899Z,7.77
2023-02-23T05:44:05.556Z,7.80
2023-02-23T05:46:32.322Z,7.76
2023-02-23T05:49:00.944Z,7.77
2023-02-23T05:51:29.688Z,7.79
2023-02-23T05:53:56.361Z,7.81
2023-02-23T05:56:23.378Z,7.83
2023-02-23T05:58:52.604Z,7.85
2023-02-23T06:01:19.821Z,7.86
2023-02-23T06:03:48.238Z,7.84
2023-02-23T06:06:15.517Z,7.88
2023-02-23T06:08:42.627Z,7.90
2023-02-23T06:11:09.837Z,7.81
2023-02-23T06:13:36.469Z,7.80
2023-02-23T06:16:03.401Z,7.84
2023-02-23T06:18:30.591Z,7.81
2023-02-23T06:21:01.093Z,7.86
2023-02-23T06:23:28.712Z,7.90
2023-02-23T06:25:55.357Z,7.91
2023-02-23T06:28:21.990Z,7.94
2023-02-23T06:30:52.041Z,7.94
2023-02-23T06:33:18.986Z,7.95
2023-02-23T06:35:46.520Z,7.96
2023-02-23T06:38:13.204Z,7.97
2023-02-23T06:40:40.316Z,7.94
2023-02-23T06:43:07.276Z,7.96
2023-02-23T06:45:34.068Z,7.98
2023-02-23T06:48:01.049Z,7.99
2023-02-23T06:50:28.977Z,8.00
2023-02-23T06:52:57.551Z,8.01
2023-02-23T06:55:24.520Z,8.00
2023-02-23T06:57:52.414Z,8.02
2023-02-23T07:00:19.460Z,8.06
2023-02-23T07:02:46.267Z,8.06
2023-02-23T07:05:12.846Z,8.07
2023-02-23T07:07:39.569Z,8.08
2023-02-23T07:10:07.240Z,8.09
2023-02-23T07:12:33.881Z,8.15
2023-02-23T07:15:00.577Z,8.17
2023-02-23T07:17:27.169Z,8.20
2023-02-23T07:19:53.887Z,8.22
2023-02-23T07:22:20.551Z,8.28
2023-02-23T07:24:47.700Z,8.37
2023-02-23T07:27:14.326Z,8.41
2023-02-23T07:29:40.903Z,8.48
2023-02-23T07:32:07.591Z,8.62
2023-02-23T07:34:34.229Z,8.63
2023-02-23T07:37:00.824Z,8.67
2023-02-23T07:39:27.573Z,8.80
2023-02-23T07:41:54.139Z,8.94
2023-02-23T07:44:21.797Z,9.00
2023-02-23T07:46:48.549Z,8.98
2023-02-23T07:49:15.388Z,8.97
2023-02-23T07:51:42.072Z,8.98
2023-02-23T07:54:08.673Z,8.96
2023-02-23T07:56:35.581Z,8.89
2023-02-23T07:59:03.030Z,8.85
2023-02-23T08:01:29.886Z,8.78
2023-02-23T08:03:56.623Z,8.72
2023-02-23T08:06:23.319Z,8.61
2023-02-23T08:08:49.906Z,8.60
2023-02-23T08:11:16.738Z,8.60
2023-02-23T08:13:43.631Z,8.59
2023-02-23T08:16:12.441Z,8.59
2023-02-23T08:18:39.233Z,8.54
2023-02-23T08:21:06.086Z,8.54
2023-02-23T08:23:33.707Z,8.58
2023-02-23T08:26:01.432Z,8.65
2023-02-23T08:28:28.758Z,8.76
2023-02-23T08:30:55.408Z,8.86
2023-02-23T08:33:22.506Z,8.87
2023-02-23T08:35:49.102Z,8.80
2023-02-23T08:38:16.593Z,8.79
2023-02-23T08:40:43.462Z,8.87
2023-02-23T08:43:10.358Z,8.90
2023-02-23T08:45:38.669Z,9.00
2023-02-23T08:48:07.027Z,8.96
2023-02-23T08:50:33.638Z,8.86
2023-02-23T08:53:00.239Z,8.80
2023-02-23T08:55:26.931Z,8.75
2023-02-23T08:57:53.613Z,8.82
2023-02-23T09:00:20.806Z,8.92
2023-02-23T09:02:48.389Z,8.89
2023-02-23T09:05:15.868Z,8.79
2023-02-23T09:07:45.189Z,8.76
2023-02-23T09:10:17.420Z,8.74
2023-02-23T09:12:43.994Z,8.71
2023-02-23T09:15:11.509Z,8.67
2023-02-23T09:17:38.595Z,8.68
2023-02-23T09:20:05.996Z,8.62
2023-02-23T09:22:32.804Z,8.61
2023-02-23T09:24:59.450Z,8.64
2023-02-23T09:27:26.176Z,8.75
2023-02-23T09:29:52.775Z,8.78
2023-02-23T09:32:19.520Z,8.72
2023-02-23T09:34:47.605Z,8.74
2023-02-23T09:37:14.784Z,8.89
2023-02-23T09:39:41.504Z,9.18
2023-02-23T09:42:14.007Z,9.32
2023-02-23T09:44:56.104Z,9.45
2023-02-23T09:47:54.525Z,9.41
2023-02-23T09:50:24.848Z,9.28
2023-02-23T09:52:58.597Z,9.32
2023-02-23T09:55:26.538Z,9.44
2023-02-23T09:57:57.068Z,9.35
2023-02-23T10:00:27.409Z,9.17
2023-02-23T10:03:08.527Z,9.00
2023-02-23T10:05:43.947Z,8.94
2023-02-23T10:08:55.168Z,8.88
2023-02-23T10:11:43.838Z,8.90
2023-02-23T10:14:30.446Z,9.05
2023-02-23T10:17:15.541Z,9.21
2023-02-23T10:19:58.932Z,9.33
2023-02-23T10:22:27.440Z,9.34
2023-02-23T10:25:03.329Z,9.34
2023-02-23T10:27:38.084Z,9.31
2023-02-23T10:30:17.738Z,9.53
2023-02-23T10:32:59.152Z,9.81
2023-02-23T10:35:29.249Z,9.99
2023-02-23T10:37:57.428Z,9.99
2023-02-23T10:40:32.248Z,9.80
2023-02-23T10:43:01.215Z,9.76
2023-02-23T10:45:29.354Z,9.73
2023-02-23T10:48:04.154Z,9.67
2023-02-23T10:50:32.496Z,9.69
2023-02-23T10:53:23.313Z,9.72
2023-02-23T10:56:16.600Z,9.67
2023-02-23T10:58:48.301Z,9.60
2023-02-23T11:01:18.257Z,9.51
2023-02-23T11:03:57.574Z,9.42
2023-02-23T11:06:31.261Z,9.52
2023-02-23T11:08:58.155Z,9.63
2023-02-23T11:11:28.784Z,9.80
2023-02-23T11:13:57.192Z,9.87
2023-02-23T11:16:37.525Z,9.86
2023-02-23T11:19:07.527Z,9.93
2023-02-23T11:21:38.772Z,9.99
2023-02-23T11:24:30.820Z,10.08
2023-02-23T11:27:03.618Z,10.30
2023-02-23T11:29:37.931Z,10.39
2023-02-23T11:32:20.741Z,10.25
2023-02-23T11:34:49.441Z,10.30
2023-02-23T11:37:23.349Z,10.30
2023-02-23T11:39:55.782Z,10.02
2023-02-23T11:42:25.502Z,9.70
2023-02-23T11:45:14.649Z,9.66
2023-02-23T11:47:48.239Z,9.79
2023-02-23T11:50:35.552Z,10.10
2023-02-23T11:53:35.118Z,10.36
2023-02-23T11:56:08.124Z,10.60
2023-02-23T11:58:45.505Z,10.49
2023-02-23T12:01:16.972Z,10.19
2023-02-23T12:03:49.521Z,10.03
2023-02-23T12:06:35.621Z,9.97
2023-02-23T12:09:28.228Z,9.83
2023-02-23T12:12:07.421Z,9.53
2023-02-23T12:14:40.911Z,9.45
2023-02-23T12:17:25.424Z,9.75
2023-02-23T12:20:20.274Z,10.04
2023-02-23T12:22:51.418Z,10.36
2023-02-23T12:25:29.848Z,10.56
2023-02-23T12:28:32.160Z,10.60
2023-02-23T12:31:04.684Z,10.61
2023-02-23T12:33:44.127Z,10.65
2023-02-23T12:36:43.030Z,10.65
2023-02-23T12:39:22.243Z,10.71
2023-02-23T12:41:59.305Z,10.87
2023-02-23T12:44:34.980Z,10.75
2023-02-23T12:47:26.975Z,10.69
2023-02-23T12:50:13.864Z,10.70
2023-02-23T12:52:49.446Z,10.57
2023-02-23T12:55:18.884Z,10.46
2023-02-23T12:58:03.861Z,10.52
2023-02-23T13:00:58.202Z,10.38
2023-02-23T13:03:30.336Z,10.29
2023-02-23T13:06:17.774Z,10.14
2023-02-23T13:09:08.074Z,9.93
2023-02-23T13:12:01.994Z,9.71
2023-02-23T13:14:46.893Z,9.86
2023-02-23T13:17:31.786Z,9.97
2023-02-23T13:20:22.596Z,10.05
2023-02-23T13:22:57.984Z,10.10
2023-02-23T13:25:42.534Z,10.22
2023-02-23T13:28:18.446Z,10.20
2023-02-23T13:30:47.578Z,10.30
2023-02-23T13:33:43.950Z,10.23
2023-02-23T13:36:12.938Z,10.31
2023-02-23T13:39:19.156Z,10.22
2023-02-23T13:42:09.807Z,10.15
2023-02-23T13:44:59.375Z,9.99
2023-02-23T13:47:45.510Z,10.01
2023-02-23T13:50:47.020Z,10.24
2023-02-23T13:53:28.616Z,10.27
2023-02-23T13:56:01.766Z,10.17
2023-02-23T13:58:31.187Z,10.19
2023-02-23T14:01:30.699Z,10.19
2023-02-23T14:04:00.717Z,10.06
2023-02-23T14:06:30.119Z,9.89
2023-02-23T14:09:25.485Z,9.68
2023-02-23T14:11:57.438Z,9.70
2023-02-23T14:14:33.231Z,9.62
2023-02-23T14:17:15.087Z,9.58
2023-02-23T14:20:13.350Z,9.54
2023-02-23T14:23:26.520Z,9.46
2023-02-23T14:26:32.972Z,9.42
2023-02-23T14:29:25.516Z,9.34
2023-02-23T14:32:24.721Z,9.25
2023-02-23T14:34:59.532Z,9.17
2023-02-23T14:37:37.021Z,9.09
2023-02-23T14:40:09.666Z,9.16
2023-02-23T14:42:39.142Z,9.07
2023-02-23T14:45:19.533Z,9.08
2023-02-23T14:47:48.697Z,9.09
2023-02-23T14:50:25.737Z,9.15
2023-02-23T14:52:55.305Z,9.14
2023-02-23T14:55:29.197Z,9.04
2023-02-23T14:57:57.136Z,8.94
2023-02-23T15:00:32.414Z,8.83
2023-02-23T15:03:09.341Z,8.74
2023-02-23T15:05:42.317Z,8.64
2023-02-23T15:08:15.366Z,8.54
2023-02-23T15:10:44.141Z,8.60
2023-02-23T15:13:40.096Z,8.47
2023-02-23T15:16:08.165Z,8.43
2023-02-23T15:19:35.347Z,8.41
2023-02-23T15:22:04.553Z,8.33
2023-02-23T15:24:42.942Z,8.23
2023-02-23T15:27:18.411Z,8.22
2023-02-23T15:29:45.076Z,8.19
2023-02-23T15:32:23.499Z,8.13
2023-02-23T15:34:52.102Z,8.19
2023-02-23T15:40:18.193Z,8.27
2023-02-23T15:42:56.823Z,8.21
2023-02-23T15:45:40.317Z,8.26
2023-02-23T15:48:17.385Z,8.28
2023-02-23T15:50:53.254Z,8.28
2023-02-23T15:53:29.006Z,8.19
2023-02-23T15:56:00.874Z,8.13
2023-02-23T15:58:31.771Z,8.12
2023-02-23T16:01:06.123Z,8.04
2023-02-23T16:03:35.864Z,8.00
2023-02-23T16:06:17.475Z,8.02
2023-02-23T16:09:21.058Z,7.97
2023-02-23T16:12:03.242Z,7.95
2023-02-23T16:14:45.984Z,7.92
2023-02-23T16:17:29.015Z,7.89
2023-02-23T16:20:36.852Z,7.88
2023-02-23T16:23:05.402Z,7.83
2023-02-23T16:25:33.871Z,7.80
2023-02-23T16:28:08.915Z,7.76
2023-02-23T16:30:43.774Z,7.75
2023-02-23T16:33:20.710Z,7.76
2023-02-23T16:35:50.606Z,7.81
2023-02-23T16:38:33.668Z,7.78
2023-02-23T16:41:02.292Z,7.68
2023-02-23T16:43:31.664Z,7.70
2023-02-23T16:45:58.536Z,7.67
2023-02-23T16:48:25.173Z,7.59
2023-02-23T16:50:51.846Z,7.57
2023-02-23T16:53:18.580Z,7.55
2023-02-23T16:55:53.857Z,7.51
2023-02-23T16:58:24.693Z,7.47
2023-02-23T17:00:52.669Z,7.49
2023-02-23T17:03:24.288Z,7.49
2023-02-23T17:05:51.983Z,7.48
2023-02-23T17:08:18.745Z,7.40
2023-02-23T17:10:51.535Z,7.40
2023-02-23T17:13:23.740Z,7.42
2023-02-23T17:15:53.963Z,7.34
2023-02-23T17:18:25.803Z,7.19
2023-02-23T17:20:54.258Z,7.25
2023-02-23T17:23:23.134Z,7.12
2023-02-23T17:25:49.758Z,7.09
2023-02-23T17:28:17.095Z,7.05
2023-02-23T17:30:44.906Z,7.01
2023-02-23T17:33:11.723Z,6.98
2023-02-23T17:35:38.881Z,7.01
2023-02-23T17:38:07.643Z,7.00
2023-02-23T17:40:36.546Z,6.89
2023-02-23T17:43:07.417Z,6.84
2023-02-23T17:45:34.440Z,6.80
2023-02-23T17:48:01.289Z,6.74
2023-02-23T17:50:28.352Z,6.67
2023-02-23T17:52:55.889Z,6.69
2023-02-23T17:55:23.935Z,6.66
2023-02-23T17:57:50.846Z,6.64
2023-02-23T18:00:19.235Z,6.63
2023-02-23T18:02:46.581Z,6.60
2023-02-23T18:05:14.209Z,6.57
2023-02-23T18:07:41.777Z,6.62
2023-02-23T18:10:09.863Z,6.60
2023-02-23T18:12:36.881Z,6.57
2023-02-23T18:15:04.679Z,6.53
2023-02-23T18:17:33.933Z,6.53
2023-02-23T18:20:00.989Z,6.49
2023-02-23T18:22:27.591Z,6.62
2023-02-23T18:24:55.046Z,6.62
2023-02-23T18:27:23.629Z,6.59
2023-02-23T18:29:50.599Z,6.59
2023-02-23T18:32:17.377Z,6.64
2023-02-23T18:34:44.556Z,6.57
2023-02-23T18:37:11.287Z,6.57
2023-02-23T18:39:38.081Z,6.62
2023-02-23T18:42:05.108Z,6.60
2023-02-23T18:44:34.078Z,6.64
2023-02-23T18:47:02.463Z,6.61
2023-02-23T18:49:29.107Z,6.61
2023-02-23T18:51:55.864Z,6.64
2023-02-23T18:54:22.530Z,6.64
2023-02-23T18:56:49.590Z,6.63
2023-02-23T18:59:16.332Z,6.63
2023-02-23T19:01:46.658Z,6.60
2023-02-23T19:04:13.549Z,6.65
2023-02-23T19:06:44.074Z,6.61
2023-02-23T19:09:13.296Z,6.62
2023-02-23T19:11:42.098Z,6.65
2023-02-23T19:14:13.138Z,6.57
2023-02-23T19:16:41.231Z,6.58
2023-02-23T19:19:09.033Z,6.53
2023-02-23T19:21:37.448Z,6.50
2023-02-23T19:24:05.012Z,6.55
2023-02-23T19:26:33.736Z,6.58
2023-02-23T19:29:01.016Z,6.53
2023-02-23T19:31:28.499Z,6.53
2023-02-23T19:33:57.029Z,6.54
2023-02-23T19:36:30.015Z,6.46
2023-02-23T19:39:06.043Z,6.49
2023-02-23T19:41:34.354Z,6.48
2023-02-23T19:44:01.994Z,6.48
2023-02-23T19:46:29.322Z,6.57
2023-02-23T19:48:56.775Z,6.45
2023-02-23T19:51:24.041Z,6.53
2023-02-23T19:53:56.571Z,6.42
2023-02-23T19:56:25.189Z,6.36
2023-02-23T19:58:52.428Z,6.40
2023-02-23T20:01:22.233Z,6.37
2023-02-23T20:03:57.910Z,6.38
2023-02-23T20:06:27.520Z,6.35
2023-02-23T20:08:55.185Z,6.33
2023-02-23T20:11:22.689Z,6.35
2023-02-23T20:13:51.319Z,6.33
2023-02-23T20:16:18.798Z,6.30
2023-02-23T20:18:46.072Z,6.36
2023-02-23T20:21:19.457Z,6.30
2023-02-23T20:23:47.477Z,6.32
2023-02-23T20:26:17.695Z,6.28
2023-02-23T20:28:45.573Z,6.32
2023-02-23T20:31:15.637Z,6.27
2023-02-23T20:33:42.723Z,6.37
2023-02-23T20:36:12.099Z,6.42
2023-02-23T20:38:39.356Z,6.31
2023-02-23T20:41:06.181Z,6.31
2023-02-23T20:43:33.135Z,6.27
2023-02-23T20:46:01.056Z,6.29
2023-02-23T20:48:32.807Z,6.27
2023-02-23T20:51:01.588Z,6.25
2023-02-23T20:53:29.192Z,6.24
2023-02-23T20:55:56.395Z,6.26
2023-02-23T20:58:26.142Z,6.33
2023-02-23T21:01:04.905Z,6.31
2023-02-23T21:03:32.093Z,6.30
2023-02-23T21:05:59.432Z,6.34
2023-02-23T21:08:26.043Z,6.40
2023-02-23T21:10:52.603Z,6.32
2023-02-23T21:13:19.225Z,6.24
2023-02-23T21:15:46.235Z,6.29
2023-02-23T21:18:12.951Z,6.28
2023-02-23T21:20:39.979Z,6.24
2023-02-23T21:23:08.280Z,6.20
2023-02-23T21:25:35.300Z,6.17
2023-02-23T21:28:02.203Z,6.12
2023-02-23T21:30:29.832Z,6.14
2023-02-23T21:32:57.723Z,6.05
2023-02-23T21:35:24.437Z,6.03
2023-02-23T21:37:51.808Z,6.04
2023-02-23T21:40:20.929Z,5.94
2023-02-23T21:42:48.557Z,5.96
2023-02-23T21:45:15.693Z,6.03
2023-02-23T21:47:44.660Z,6.05
2023-02-23T21:50:14.844Z,6.06
2023-02-23T21:52:46.875Z,6.07
2023-02-23T21:55:21.452Z,6.13
2023-02-23T21:57:49.113Z,6.09
2023-02-23T22:00:16.373Z,6.03
2023-02-23T22:02:46.412Z,6.01
2023-02-23T22:05:15.116Z,6.02
2023-02-23T22:07:46.813Z,6.01
2023-02-23T22:10:13.382Z,5.95
2023-02-23T22:12:39.934Z,6.02
2023-02-23T22:15:07.281Z,5.93
2023-02-23T22:17:34.288Z,5.95
2023-02-23T22:20:01.491Z,5.92
2023-02-23T22:22:28.393Z,5.91
2023-02-23T22:24:54.995Z,5.84
2023-02-23T22:27:22.205Z,5.86
2023-02-23T22:29:48.906Z,5.87
2023-02-23T22:32:17.532Z,5.90
2023-02-23T22:34:44.368Z,5.87
2023-02-23T22:37:11.033Z,5.83
2023-02-23T22:39:41.686Z,5.82
2023-02-23T22:42:12.757Z,5.81
2023-02-23T22:44:39.652Z,5.84
2023-02-23T22:47:07.361Z,5.86
2023-02-23T22:49:34.712Z,5.81
2023-02-23T22:52:01.444Z,5.82
2023-02-23T22:54:28.069Z,5.85
2023-02-23T22:56:54.907Z,5.84
2023-02-23T22:59:21.566Z,5.83
2023-02-23T23:01:50.168Z,5.79
2023-02-23T23:04:17.216Z,5.77
2023-02-23T23:06:44.027Z,5.82
2023-02-23T23:09:12.194Z,5.80
2023-02-23T23:11:41.765Z,5.81
2023-02-23T23:14:10.443Z,5.88
2023-02-23T23:16:47.592Z,5.77
2023-02-23T23:19:18.959Z,5.71
2023-02-23T23:21:46.283Z,5.80
2023-02-23T23:24:13.654Z,5.80
2023-02-23T23:26:40.407Z,5.77
2023-02-23T23:29:10.225Z,5.77
2023-02-23T23:31:38.569Z,5.75
2023-02-23T23:34:09.616Z,5.70
2023-02-23T23:36:43.086Z,5.75
2023-02-23T23:39:12.127Z,5.72
2023-02-23T23:41:39.595Z,5.74
2023-02-23T23:44:06.780Z,5.70
2023-02-23T23:46:37.472Z,5.71
2023-02-23T23:49:08.127Z,5.71
2023-02-23T23:51:38.908Z,5.70
2023-02-23T23:54:09.711Z,5.75
2023-02-23T23:56:39.676Z,5.77
2023-02-23T23:59:12.886Z,5.76
